KYNG/YNG METAR and TAF weather

Enter ICAO airport designator
Station Type Date Time Source
KYNG METAR 2020/01/19 00:18 UTC NOAA

KYNG 190018Z 26019G33KT 10SM FEW011 BKN031 OVC045 04/M01 A2970 RMK AO2 PK WND 25038/0000 RAE17 P0000 T00391006 $


Station Type Date Time Source
KYNG Decoded METAR 2020/01/19 00:18 UTC NOAA

YOUNGSTOWN-WARREN REG AIRPRT, OH, United States (KYNG) 41-15N 080-40W 360M
Jan 18, 2020 - 07:18 PM EST / 2020.01.19 0018 UTC
Wind: from the W (260 degrees) at 22 MPH (19 KT) gusting to 38 MPH (33 KT):0
Visibility: 10 mile(s):0
Sky conditions: overcast
Precipitation last hour: A trace
Temperature: 39.0 F (3.9 C)
Dew Point: 30.9 F (-0.6 C)
Relative Humidity: 72%
Pressure (altimeter): 29.7 in. Hg (1005 hPa)
ob: KYNG 190018Z 26019G33KT 10SM FEW011 BKN031 OVC045 04/M01 A2970 RMK AO2 PK WND 25038/0000 RAE17 P0000 T00391006
cycle: 0

Station Type Date Time Source
KYNG TAF 2020/01/18 20:39 UTC NOAA

TAF
AMD KYNG 181937Z 1820/1918 20015G30KT 6SM -RA OVC008 WS020/20045KT
FM182300 23020G30KT 6SM -RA OVC010 WS020/24050KT
FM190000 24020G30KT P6SM VCSH OVC008
FM190100 24020G30KT P6SM VCSH OVC010
FM190300 25020G30KT P6SM OVC010

Example: see airport list